createdAt,value
2018-08-09T00:01:16.999Z,12.63
2018-08-09T00:04:00.989Z,13.05
2018-08-09T00:06:38.217Z,11.83
2018-08-09T00:09:12.971Z,10.65
2018-08-09T00:11:47.738Z,10.53
2018-08-09T00:14:22.416Z,11.48
2018-08-09T00:16:57.169Z,15.68
2018-08-09T00:19:36.915Z,12.25
2018-08-09T00:22:11.830Z,11.35
2018-08-09T00:24:46.573Z,13.90
2018-08-09T00:27:22.319Z,11.28
2018-08-09T00:29:57.995Z,13.22
2018-08-09T00:32:32.695Z,12.90
2018-08-09T00:35:08.430Z,15.30
2018-08-09T00:37:43.498Z,15.30
2018-08-09T00:40:18.210Z,15.50
2018-08-09T00:42:52.968Z,15.05
2018-08-09T00:45:27.724Z,15.95
2018-08-09T00:48:02.448Z,14.87
2018-08-09T00:50:37.499Z,11.95
2018-08-09T00:53:12.220Z,14.05
2018-08-09T00:55:46.952Z,16.37
2018-08-09T00:58:21.699Z,13.50
2018-08-09T01:00:56.472Z,16.97
2018-08-09T01:03:31.696Z,18.37
2018-08-09T01:06:07.447Z,15.78
2018-08-09T01:08:46.340Z,16.00
2018-08-09T01:11:21.062Z,15.93
2018-08-09T01:13:55.947Z,18.87
2018-08-09T01:16:30.971Z,18.90
2018-08-09T01:19:05.743Z,16.50
2018-08-09T01:21:40.468Z,19.02
2018-08-09T01:24:15.210Z,16.57
2018-08-09T01:26:49.951Z,13.72
2018-08-09T01:29:24.668Z,15.93
2018-08-09T01:31:59.428Z,15.03
2018-08-09T01:34:34.227Z,15.53
2018-08-09T01:37:09.992Z,15.83
2018-08-09T01:39:44.718Z,17.00
2018-08-09T01:43:32.803Z,13.10
2018-08-09T01:46:07.816Z,16.45
2018-08-09T01:48:42.516Z,14.30
2018-08-09T01:51:17.203Z,12.98
2018-08-09T01:53:53.864Z,13.70
2018-08-09T01:56:28.606Z,17.00
2018-08-09T01:59:03.378Z,17.07
2018-08-09T02:01:38.082Z,15.48
2018-08-09T02:04:12.837Z,20.05
2018-08-09T02:06:47.563Z,15.85
2018-08-09T02:09:28.503Z,22.22
2018-08-09T02:12:04.866Z,20.95
2018-08-09T02:14:40.596Z,16.12
2018-08-09T02:17:15.329Z,17.30
2018-08-09T02:19:50.043Z,15.78
2018-08-09T02:22:24.786Z,16.35
2018-08-09T02:24:59.494Z,13.15
2018-08-09T02:27:35.224Z,15.43
2018-08-09T02:30:09.955Z,16.73
2018-08-09T02:32:44.678Z,17.70
2018-08-09T02:35:20.440Z,17.27
2018-08-09T02:37:55.177Z,20.55
2018-08-09T02:40:29.898Z,14.03
2018-08-09T02:43:04.688Z,16.40
2018-08-09T02:45:39.390Z,16.05
2018-08-09T02:48:14.147Z,16.27
2018-08-09T02:50:48.875Z,15.10
2018-08-09T02:53:24.627Z,16.73
2018-08-09T02:55:59.441Z,18.95
2018-08-09T02:58:50.459Z,18.52
2018-08-09T03:01:25.280Z,17.70
2018-08-09T03:04:00.084Z,14.40
2018-08-09T03:06:34.880Z,15.43
2018-08-09T03:09:12.788Z,22.35
2018-08-09T03:11:47.635Z,15.83
2018-08-09T03:14:22.450Z,16.57
2018-08-09T03:16:57.248Z,14.43
2018-08-09T03:19:33.079Z,19.12
2018-08-09T03:22:07.963Z,19.73
2018-08-09T03:24:42.755Z,20.85
2018-08-09T03:27:17.575Z,18.45
2018-08-09T03:29:53.384Z,17.40
2018-08-09T03:32:28.511Z,12.78
2018-08-09T03:35:03.400Z,13.30
2018-08-09T03:37:39.198Z,15.63
2018-08-09T03:40:14.032Z,12.85
2018-08-09T03:42:48.824Z,17.05
2018-08-09T03:45:23.648Z,20.52
2018-08-09T03:47:59.484Z,17.70
2018-08-09T03:50:34.292Z,18.62
2018-08-09T03:53:09.115Z,21.10
2018-08-09T03:55:43.929Z,20.55
2018-08-09T03:58:18.761Z,15.43
2018-08-09T04:00:54.755Z,18.25
2018-08-09T04:03:29.571Z,17.82
2018-08-09T04:06:05.599Z,22.27
2018-08-09T04:08:40.448Z,15.43
2018-08-09T04:11:16.241Z,13.20
2018-08-09T04:13:52.024Z,14.75
2018-08-09T04:16:26.840Z,15.75
2018-08-09T04:19:01.640Z,15.78
2018-08-09T04:21:36.453Z,17.00
2018-08-09T04:24:12.239Z,16.97
2018-08-09T04:26:47.020Z,15.15
2018-08-09T04:29:22.812Z,19.62
2018-08-09T04:31:57.633Z,16.32
2018-08-09T04:34:32.430Z,18.32
2018-08-09T04:37:07.388Z,18.65
2018-08-09T04:39:42.230Z,14.90
2018-08-09T04:42:17.181Z,18.95
2018-08-09T04:44:51.954Z,14.20
2018-08-09T04:47:27.757Z,12.58
2018-08-09T04:50:03.604Z,13.88
2018-08-09T04:52:38.399Z,14.75
2018-08-09T04:55:13.189Z,13.62
2018-08-09T04:57:48.520Z,13.95
2018-08-09T05:00:23.385Z,11.73
2018-08-09T05:02:59.221Z,12.50
2018-08-09T05:05:34.047Z,13.08
2018-08-09T05:08:09.056Z,8.43
2018-08-09T05:10:43.841Z,13.32
2018-08-09T05:13:18.684Z,10.68
2018-08-09T05:15:54.514Z,9.98
2018-08-09T05:18:29.506Z,8.33
2018-08-09T05:21:05.331Z,16.42
2018-08-09T05:23:40.176Z,11.55
2018-08-09T05:26:14.981Z,9.98
2018-08-09T05:28:49.760Z,11.20
2018-08-09T05:31:24.534Z,12.43
2018-08-09T05:33:59.345Z,15.18
2018-08-09T05:36:34.163Z,8.05
2018-08-09T05:39:10.924Z,12.85
2018-08-09T05:41:45.722Z,9.63
2018-08-09T05:44:20.516Z,7.53
2018-08-09T05:46:56.328Z,9.10
2018-08-09T05:49:31.484Z,14.28
2018-08-09T05:52:06.369Z,7.40
2018-08-09T05:54:41.163Z,6.05
2018-08-09T05:57:15.991Z,5.30
2018-08-09T05:59:51.500Z,6.73
2018-08-09T06:02:26.963Z,9.00
2018-08-09T06:05:01.468Z,7.00
2018-08-09T06:07:37.163Z,5.10
2018-08-09T06:10:12.224Z,7.40
2018-08-09T06:12:47.996Z,4.77
2018-08-09T06:15:26.677Z,8.43
2018-08-09T06:18:03.663Z,4.03
2018-08-09T06:20:40.569Z,5.27
2018-08-09T06:23:16.209Z,4.27
2018-08-09T06:25:50.720Z,4.60
2018-08-09T06:28:25.602Z,4.10
2018-08-09T06:31:01.140Z,4.43
2018-08-09T06:33:35.748Z,4.67
2018-08-09T06:36:11.435Z,5.80
2018-08-09T06:38:47.064Z,5.23
2018-08-09T06:41:21.544Z,6.10
2018-08-09T06:43:56.457Z,2.70
2018-08-09T06:46:31.021Z,4.27
2018-08-09T06:49:05.582Z,4.70
2018-08-09T06:51:40.087Z,3.73
2018-08-09T06:54:15.627Z,7.37
2018-08-09T06:56:50.424Z,5.40
2018-08-09T06:59:25.325Z,7.47
2018-08-09T07:01:59.852Z,9.77
2018-08-09T07:04:34.685Z,4.03
2018-08-09T07:07:11.907Z,5.90
2018-08-09T07:09:46.716Z,7.28
2018-08-09T07:12:22.475Z,7.50
2018-08-09T07:14:57.312Z,3.87
2018-08-09T07:17:32.173Z,6.92
2018-08-09T07:20:07.467Z,5.40
2018-08-09T07:22:42.968Z,3.63
2018-08-09T07:25:17.500Z,5.00
2018-08-09T07:27:51.981Z,5.27
2018-08-09T07:30:26.473Z,5.53
2018-08-09T07:33:00.974Z,6.43
2018-08-09T07:35:35.504Z,5.83
2018-08-09T07:38:10.062Z,7.13
2018-08-09T07:40:45.504Z,4.97
2018-08-09T07:43:22.025Z,4.53
2018-08-09T07:45:57.519Z,4.20
2018-08-09T07:48:32.069Z,7.73
2018-08-09T07:51:06.728Z,8.23
2018-08-09T07:53:41.287Z,4.87
2018-08-09T07:56:15.848Z,7.27
2018-08-09T07:58:51.396Z,5.17
2018-08-09T08:01:26.037Z,7.83
2018-08-09T08:04:00.542Z,5.23
2018-08-09T08:06:35.127Z,3.83
2018-08-09T08:09:11.456Z,4.67
2018-08-09T08:11:47.001Z,4.57
2018-08-09T08:14:21.494Z,5.20
2018-08-09T08:16:56.107Z,4.30
2018-08-09T08:19:30.665Z,3.53
2018-08-09T08:22:05.238Z,6.07
2018-08-09T08:24:40.120Z,4.43
2018-08-09T08:27:14.675Z,3.63
2018-08-09T08:29:49.165Z,4.90
2018-08-09T08:32:23.756Z,6.37
2018-08-09T08:34:58.281Z,4.57
2018-08-09T08:37:32.808Z,7.67
2018-08-09T08:40:09.084Z,6.87
2018-08-09T08:42:43.618Z,7.60
2018-08-09T08:45:18.108Z,6.63
2018-08-09T08:47:52.637Z,10.23
2018-08-09T08:50:27.155Z,6.83
2018-08-09T08:53:01.709Z,4.63
2018-08-09T08:55:36.227Z,4.47
2018-08-09T08:58:11.141Z,6.63
2018-08-09T09:00:45.687Z,3.73
2018-08-09T09:03:21.135Z,5.73
2018-08-09T09:05:55.674Z,7.87
2018-08-09T09:08:31.216Z,4.27
2018-08-09T09:11:05.724Z,4.63
2018-08-09T09:13:40.551Z,4.47
2018-08-09T09:16:15.212Z,3.73
2018-08-09T09:18:50.036Z,6.37
2018-08-09T09:21:24.517Z,3.87
2018-08-09T09:23:59.050Z,5.67
2018-08-09T09:26:34.541Z,2.63
2018-08-09T09:29:09.046Z,5.07
2018-08-09T09:31:43.606Z,5.47
2018-08-09T09:34:18.088Z,4.17
2018-08-09T09:36:53.576Z,2.40
2018-08-09T09:39:28.043Z,3.90
2018-08-09T09:42:03.556Z,4.43
2018-08-09T09:44:39.077Z,5.47
2018-08-09T09:47:13.579Z,2.87
2018-08-09T09:49:48.168Z,5.80
2018-08-09T09:52:25.054Z,4.93
2018-08-09T09:55:00.109Z,6.27
2018-08-09T09:57:36.385Z,4.83
2018-08-09T10:00:16.024Z,2.77
2018-08-09T10:02:50.497Z,4.90
2018-08-09T10:05:25.026Z,2.87
2018-08-09T10:08:00.687Z,5.17
2018-08-09T10:10:35.228Z,6.67
2018-08-09T10:13:09.690Z,5.27
2018-08-09T10:15:44.202Z,5.87
2018-08-09T10:18:18.664Z,6.83
2018-08-09T10:20:54.039Z,8.17
2018-08-09T10:23:28.503Z,4.90
2018-08-09T10:26:03.030Z,6.23
2018-08-09T10:28:37.467Z,7.50
2018-08-09T10:31:13.012Z,3.70
2018-08-09T10:33:47.478Z,5.80
2018-08-09T10:36:22.025Z,6.03
2018-08-09T10:38:56.462Z,3.33
2018-08-09T10:41:31.954Z,7.03
2018-08-09T10:44:06.443Z,8.17
2018-08-09T10:46:40.961Z,8.17
2018-08-09T10:49:16.461Z,5.30
2018-08-09T10:51:50.945Z,4.47
2018-08-09T10:54:25.440Z,6.30
2018-08-09T10:56:59.958Z,4.57
2018-08-09T10:59:34.436Z,4.37
2018-08-09T11:02:08.880Z,5.33
2018-08-09T11:04:43.324Z,7.30
2018-08-09T11:07:18.836Z,3.43
2018-08-09T11:09:53.260Z,4.17
2018-08-09T11:12:27.711Z,6.17
2018-08-09T11:15:02.223Z,2.90
2018-08-09T11:17:36.890Z,4.57
2018-08-09T11:20:11.542Z,6.07
2018-08-09T11:22:46.021Z,3.70
2018-08-09T11:25:20.554Z,3.93
2018-08-09T11:27:54.972Z,3.37
2018-08-09T11:30:29.408Z,3.80
2018-08-09T11:33:03.889Z,3.27
2018-08-09T11:35:38.343Z,6.30
2018-08-09T11:38:12.848Z,5.50
2018-08-09T11:40:47.325Z,3.87
2018-08-09T11:43:21.859Z,6.33
2018-08-09T11:45:56.508Z,9.60
2018-08-09T11:48:31.992Z,4.40
2018-08-09T11:51:07.501Z,6.97
2018-08-09T11:53:41.980Z,5.90
2018-08-09T11:56:16.464Z,7.77
2018-08-09T11:58:51.048Z,2.47
2018-08-09T12:01:25.574Z,4.27
2018-08-09T12:04:00.248Z,8.30
2018-08-09T12:06:34.760Z,5.00
2018-08-09T12:09:10.797Z,6.80
2018-08-09T12:11:45.428Z,6.70
2018-08-09T12:14:29.737Z,5.43
2018-08-09T12:17:13.030Z,5.17
2018-08-09T12:19:52.615Z,3.17
2018-08-09T12:22:27.640Z,4.50
2018-08-09T12:25:02.490Z,7.60
2018-08-09T12:27:44.321Z,6.87
2018-08-09T12:30:18.834Z,5.53
2018-08-09T12:32:53.720Z,6.27
2018-08-09T12:35:30.665Z,5.93
2018-08-09T12:38:06.666Z,6.13
2018-08-09T12:40:42.442Z,6.77
2018-08-09T12:43:17.556Z,4.43
2018-08-09T12:45:54.775Z,6.23
2018-08-09T12:48:30.036Z,5.47
2018-08-09T12:51:06.369Z,5.47
2018-08-09T12:53:43.097Z,7.50
2018-08-09T12:56:19.235Z,3.57
2018-08-09T12:58:55.903Z,2.87
2018-08-09T13:01:31.649Z,6.40
2018-08-09T13:04:06.887Z,7.13
2018-08-09T13:06:41.605Z,5.37
2018-08-09T13:09:16.132Z,5.13
2018-08-09T13:11:51.626Z,6.33
2018-08-09T13:14:28.426Z,5.03
2018-08-09T13:17:02.907Z,2.73
2018-08-09T13:19:44.615Z,7.83
2018-08-09T13:22:23.371Z,4.47
2018-08-09T13:25:04.102Z,6.03
2018-08-09T13:27:42.416Z,9.33
2018-08-09T13:30:17.038Z,5.77
2018-08-09T13:32:51.667Z,6.80
2018-08-09T13:35:26.472Z,5.60
2018-08-09T13:38:20.090Z,6.80
2018-08-09T13:43:51.231Z,10.70
2018-08-09T13:46:29.710Z,4.33
2018-08-09T13:49:07.403Z,8.33
2018-08-09T13:51:42.171Z,8.43
2018-08-09T13:54:19.440Z,9.57
2018-08-09T13:56:55.416Z,7.47
2018-08-09T13:59:33.530Z,5.40
2018-08-09T14:02:09.547Z,7.30
2018-08-09T14:04:45.372Z,7.13
2018-08-09T14:07:30.989Z,7.13
2018-08-09T14:10:08.092Z,6.10
2018-08-09T14:12:44.820Z,8.27
2018-08-09T14:15:28.872Z,6.30
2018-08-09T14:18:04.936Z,5.80
2018-08-09T14:20:39.512Z,9.53
2018-08-09T14:23:15.316Z,7.23
2018-08-09T14:25:49.880Z,5.17
2018-08-09T14:28:24.752Z,10.00
2018-08-09T14:30:59.325Z,8.13
2018-08-09T14:33:33.976Z,12.70
2018-08-09T14:36:09.485Z,8.13
2018-08-09T14:38:45.156Z,8.07
2018-08-09T14:41:19.663Z,6.93
2018-08-09T14:47:08.359Z,5.93
2018-08-09T14:49:42.851Z,6.63
2018-08-09T14:52:18.061Z,9.37
2018-08-09T14:54:52.587Z,6.57
2018-08-09T14:57:27.356Z,8.40
2018-08-09T15:00:02.331Z,8.93
2018-08-09T15:02:37.221Z,10.73
2018-08-09T15:05:16.589Z,7.47
2018-08-09T15:07:51.175Z,9.60
2018-08-09T15:10:25.705Z,10.23
2018-08-09T15:13:00.218Z,9.73
2018-08-09T15:15:34.889Z,9.10
2018-08-09T15:18:10.644Z,5.93
2018-08-09T15:20:46.029Z,7.90
2018-08-09T15:23:20.585Z,7.07
2018-08-09T15:25:55.196Z,6.03
2018-08-09T15:28:31.058Z,8.33
2018-08-09T15:31:05.617Z,9.50
2018-08-09T15:33:47.195Z,7.53
2018-08-09T15:39:36.443Z,6.03
2018-08-09T15:45:03.281Z,6.03
2018-08-09T15:47:47.107Z,10.97
2018-08-09T15:50:35.126Z,6.27
2018-08-09T15:53:20.778Z,8.00
2018-08-09T15:55:55.475Z,14.60
2018-08-09T15:58:43.174Z,10.60
2018-08-09T16:01:22.943Z,9.37
2018-08-09T16:03:57.536Z,5.43
2018-08-09T16:06:36.908Z,10.53
2018-08-09T16:09:14.113Z,8.57
2018-08-09T16:12:01.589Z,6.30
2018-08-09T16:15:01.653Z,8.00
2018-08-09T16:17:58.462Z,6.90
2018-08-09T16:20:40.828Z,7.67
2018-08-09T16:23:16.175Z,9.57
2018-08-09T16:34:43.588Z,7.77
2018-08-09T16:37:19.228Z,8.30
2018-08-09T16:39:57.239Z,7.67
2018-08-09T16:42:43.071Z,8.77
2018-08-09T16:45:28.560Z,9.33
2018-08-09T16:48:03.127Z,8.50
2018-08-09T16:56:39.825Z,8.13
2018-08-09T16:59:14.368Z,10.17
2018-08-09T17:01:48.905Z,10.10
2018-08-09T17:04:23.453Z,10.20
2018-08-09T17:06:58.026Z,11.33
2018-08-09T17:09:32.584Z,8.30
2018-08-09T17:12:07.165Z,11.47
2018-08-09T17:14:41.696Z,9.13
2018-08-09T17:17:16.302Z,11.57
2018-08-09T17:23:10.532Z,11.53
2018-08-09T17:25:45.152Z,8.50
2018-08-09T17:28:20.740Z,14.97
2018-08-09T17:30:55.300Z,9.63
2018-08-09T17:33:31.786Z,9.83
2018-08-09T17:36:06.479Z,10.27
2018-08-09T17:38:41.084Z,12.70
2018-08-09T17:41:15.600Z,13.70
2018-08-09T17:43:50.119Z,9.70
2018-08-09T17:46:24.934Z,14.50
2018-08-09T17:49:01.042Z,12.73
2018-08-09T17:51:38.108Z,13.45
2018-08-09T17:54:13.916Z,10.58
2018-08-09T17:56:48.523Z,9.03
2018-08-09T17:59:46.106Z,13.22
2018-08-09T18:02:23.525Z,9.85
2018-08-09T18:04:59.475Z,18.15
2018-08-09T18:07:34.442Z,9.80
2018-08-09T18:10:15.781Z,12.63
2018-08-09T18:12:51.462Z,9.10
2018-08-09T18:15:27.484Z,11.90
2018-08-09T18:18:03.736Z,8.95
2018-08-09T18:20:39.284Z,9.88
2018-08-09T18:23:14.296Z,10.88
2018-08-09T18:25:49.071Z,10.85
2018-08-09T18:28:23.920Z,13.13
2018-08-09T18:30:58.755Z,13.62
2018-08-09T18:33:34.734Z,13.78
2018-08-09T18:36:09.631Z,16.05
2018-08-09T18:38:45.480Z,14.63
2018-08-09T18:41:20.270Z,12.63
2018-08-09T18:43:55.145Z,12.13
2018-08-09T18:46:29.901Z,10.50
2018-08-09T18:49:05.057Z,9.53
2018-08-09T18:51:41.249Z,9.10
2018-08-09T18:54:16.052Z,11.18
2018-08-09T18:56:50.894Z,12.25
2018-08-09T18:59:26.761Z,13.80
2018-08-09T19:02:02.583Z,14.18
2018-08-09T19:04:37.467Z,14.20
2018-08-09T19:07:12.252Z,12.25
2018-08-09T19:09:47.187Z,12.43
2018-08-09T19:12:21.964Z,12.98
2018-08-09T19:14:57.109Z,10.80
2018-08-09T19:17:32.033Z,10.85
2018-08-09T19:20:08.669Z,11.33
2018-08-09T19:22:44.896Z,13.40
2018-08-09T19:25:20.784Z,10.58
2018-08-09T19:27:55.657Z,13.20
2018-08-09T19:30:32.125Z,21.23
2018-08-09T19:33:09.731Z,15.95
2018-08-09T19:35:45.749Z,14.83
2018-08-09T19:38:20.876Z,13.80
2018-08-09T19:40:55.675Z,18.23
2018-08-09T19:43:31.590Z,23.62
2018-08-09T19:46:23.979Z,21.77
2018-08-09T19:49:03.684Z,22.07
2018-08-09T19:51:38.530Z,17.87
2018-08-09T19:54:13.325Z,16.85
2018-08-09T19:56:49.237Z,25.05
2018-08-09T19:59:24.068Z,22.55
2018-08-09T20:01:59.933Z,18.00
2018-08-09T20:04:36.289Z,22.52
2018-08-09T20:07:11.244Z,19.00
2018-08-09T20:09:47.029Z,25.10
2018-08-09T20:12:22.073Z,18.90
2018-08-09T20:14:57.901Z,17.55
2018-08-09T20:17:32.719Z,18.45
2018-08-09T20:20:09.222Z,20.70
2018-08-09T20:22:44.161Z,18.10
2018-08-09T20:25:19.103Z,19.23
2018-08-09T20:27:55.008Z,25.20
2018-08-09T20:30:29.975Z,16.67
2018-08-09T20:33:04.820Z,16.23
2018-08-09T20:35:39.684Z,22.45
2018-08-09T20:38:14.613Z,19.75
2018-08-09T20:40:49.415Z,15.40
2018-08-09T20:43:24.260Z,14.95
2018-08-09T20:45:59.074Z,15.28
2018-08-09T20:48:33.977Z,11.50
2018-08-09T20:51:09.803Z,13.30
2018-08-09T20:56:36.408Z,13.50
2018-08-09T20:59:12.198Z,11.43
2018-08-09T21:02:09.400Z,12.25
2018-08-09T21:04:52.893Z,11.00
2018-08-09T21:07:30.194Z,11.25
2018-08-09T21:10:14.038Z,11.68
2018-08-09T21:13:08.386Z,12.93
2018-08-09T21:15:46.347Z,13.20
2018-08-09T21:18:33.928Z,14.33
2018-08-09T21:21:09.179Z,14.40
2018-08-09T21:23:47.319Z,13.70
2018-08-09T21:26:22.131Z,15.30
2018-08-09T21:28:58.432Z,15.23
2018-08-09T21:31:34.396Z,14.63
2018-08-09T21:34:09.344Z,24.70
2018-08-09T21:36:45.573Z,19.15
2018-08-09T21:39:20.414Z,19.23
2018-08-09T21:41:55.217Z,20.65
2018-08-09T21:44:30.031Z,16.40
2018-08-09T21:47:04.865Z,16.30
2018-08-09T21:49:39.746Z,14.53
2018-08-09T21:52:15.445Z,16.80
2018-08-09T21:54:50.290Z,16.27
2018-08-09T21:57:26.139Z,17.52
2018-08-09T22:00:00.997Z,18.37
2018-08-09T22:02:35.842Z,16.05
2018-08-09T22:05:15.732Z,18.73
2018-08-09T22:07:55.896Z,21.02
2018-08-09T22:10:36.081Z,20.72
2018-08-09T22:13:16.426Z,21.12
2018-08-09T22:15:56.425Z,17.82
2018-08-09T22:18:36.413Z,17.57
2018-08-09T22:21:16.624Z,14.18
2018-08-09T22:23:51.497Z,15.35
2018-08-09T22:26:26.396Z,15.00
2018-08-09T22:29:01.198Z,18.20
2018-08-09T22:31:36.012Z,19.50
2018-08-09T22:34:10.824Z,20.52
2018-08-09T22:36:45.992Z,16.95
2018-08-09T22:39:21.848Z,17.42
2018-08-09T22:41:56.712Z,17.77
2018-08-09T22:44:31.513Z,17.82
2018-08-09T22:47:06.315Z,18.98
2018-08-09T22:49:41.142Z,22.40
2018-08-09T22:52:15.995Z,19.62
2018-08-09T22:54:51.905Z,23.30
2018-08-09T22:57:26.729Z,23.12
2018-08-09T23:00:01.878Z,24.45
2018-08-09T23:02:36.732Z,24.25
2018-08-09T23:05:12.660Z,27.20
2018-08-09T23:07:47.637Z,24.02
2018-08-09T23:10:22.793Z,26.15
2018-08-09T23:12:57.648Z,29.67
2018-08-09T23:15:32.504Z,28.35
2018-08-09T23:18:07.766Z,26.30
2018-08-09T23:20:42.628Z,26.62
2018-08-09T23:23:17.678Z,29.42
2018-08-09T23:25:53.543Z,24.82
2018-08-09T23:28:28.384Z,29.35
2018-08-09T23:31:03.192Z,29.87
2018-08-09T23:33:37.986Z,24.82
2018-08-09T23:36:12.800Z,24.75
2018-08-09T23:38:47.749Z,23.70
2018-08-09T23:41:22.937Z,19.95
2018-08-09T23:43:57.764Z,22.22
2018-08-09T23:46:32.612Z,22.75
2018-08-09T23:49:07.498Z,21.77
2018-08-09T23:51:42.319Z,22.15
2018-08-09T23:54:17.053Z,19.23
2018-08-09T23:56:51.848Z,19.12
2018-08-09T23:59:26.716Z,17.98
